sensor_id;sensor_type;location;lat;lon;timestamp;P1;durP1;ratioP1;P2;durP2;ratioP2
1128;SDS011;553;51.038;7.216;2023-06-19T00:01:58;6.80;;;5.97;;
1128;SDS011;553;51.038;7.216;2023-06-19T00:04:25;8.20;;;6.40;;
1128;SDS011;553;51.038;7.216;2023-06-19T00:06:53;6.20;;;5.50;;
1128;SDS011;553;51.038;7.216;2023-06-19T00:09:20;7.13;;;6.40;;
1128;SDS011;553;51.038;7.216;2023-06-19T00:11:47;6.30;;;5.70;;
1128;SDS011;553;51.038;7.216;2023-06-19T00:14:13;7.27;;;6.57;;
1128;SDS011;553;51.038;7.216;2023-06-19T00:16:40;6.90;;;6.20;;
1128;SDS011;553;51.038;7.216;2023-06-19T00:19:07;7.10;;;6.40;;
1128;SDS011;553;51.038;7.216;2023-06-19T00:21:35;7.30;;;6.60;;
1128;SDS011;553;51.038;7.216;2023-06-19T00:24:01;7.10;;;6.40;;
1128;SDS011;553;51.038;7.216;2023-06-19T00:26:28;7.27;;;6.67;;
1128;SDS011;553;51.038;7.216;2023-06-19T00:28:55;7.97;;;7.27;;
1128;SDS011;553;51.038;7.216;2023-06-19T00:31:22;9.60;;;7.73;;
1128;SDS011;553;51.038;7.216;2023-06-19T00:33:50;9.13;;;6.53;;
1128;SDS011;553;51.038;7.216;2023-06-19T00:36:16;7.77;;;7.10;;
1128;SDS011;553;51.038;7.216;2023-06-19T00:38:47;7.30;;;6.70;;
1128;SDS011;553;51.038;7.216;2023-06-19T00:41:17;8.00;;;6.90;;
1128;SDS011;553;51.038;7.216;2023-06-19T00:43:44;7.13;;;6.43;;
1128;SDS011;553;51.038;7.216;2023-06-19T00:46:11;7.70;;;6.90;;
1128;SDS011;553;51.038;7.216;2023-06-19T00:48:38;8.20;;;7.50;;
1128;SDS011;553;51.038;7.216;2023-06-19T00:51:06;8.77;;;7.90;;
1128;SDS011;553;51.038;7.216;2023-06-19T00:53:33;8.43;;;7.50;;
1128;SDS011;553;51.038;7.216;2023-06-19T00:56:01;7.00;;;6.40;;
1128;SDS011;553;51.038;7.216;2023-06-19T00:58:29;8.00;;;7.20;;
1128;SDS011;553;51.038;7.216;2023-06-19T01:00:56;7.30;;;6.60;;
1128;SDS011;553;51.038;7.216;2023-06-19T01:03:34;8.73;;;7.50;;
1128;SDS011;553;51.038;7.216;2023-06-19T01:06:03;8.43;;;7.73;;
1128;SDS011;553;51.038;7.216;2023-06-19T01:11:32;7.40;;;6.70;;
1128;SDS011;553;51.038;7.216;2023-06-19T01:14:05;7.20;;;6.47;;
1128;SDS011;553;51.038;7.216;2023-06-19T01:16:45;7.67;;;6.97;;
1128;SDS011;553;51.038;7.216;2023-06-19T01:19:15;8.10;;;7.30;;
1128;SDS011;553;51.038;7.216;2023-06-19T01:21:46;7.23;;;6.60;;
1128;SDS011;553;51.038;7.216;2023-06-19T01:24:14;7.57;;;6.87;;
1128;SDS011;553;51.038;7.216;2023-06-19T01:26:40;7.50;;;6.60;;
1128;SDS011;553;51.038;7.216;2023-06-19T01:29:13;7.97;;;6.83;;
1128;SDS011;553;51.038;7.216;2023-06-19T01:34:22;8.10;;;7.00;;
1128;SDS011;553;51.038;7.216;2023-06-19T01:36:53;7.20;;;6.50;;
1128;SDS011;553;51.038;7.216;2023-06-19T01:39:23;7.83;;;7.00;;
1128;SDS011;553;51.038;7.216;2023-06-19T01:41:51;8.13;;;7.33;;
1128;SDS011;553;51.038;7.216;2023-06-19T01:44:19;8.40;;;7.50;;
1128;SDS011;553;51.038;7.216;2023-06-19T01:46:49;7.67;;;6.97;;
1128;SDS011;553;51.038;7.216;2023-06-19T01:49:17;9.00;;;8.10;;
1128;SDS011;553;51.038;7.216;2023-06-19T01:51:45;8.97;;;7.40;;
1128;SDS011;553;51.038;7.216;2023-06-19T01:54:11;7.90;;;7.10;;
1128;SDS011;553;51.038;7.216;2023-06-19T01:56:38;7.37;;;6.77;;
1128;SDS011;553;51.038;7.216;2023-06-19T01:59:05;7.83;;;7.17;;
1128;SDS011;553;51.038;7.216;2023-06-19T02:01:32;7.77;;;7.07;;
1128;SDS011;553;51.038;7.216;2023-06-19T02:04:00;8.97;;;8.17;;
1128;SDS011;553;51.038;7.216;2023-06-19T02:06:29;8.20;;;7.40;;
1128;SDS011;553;51.038;7.216;2023-06-19T02:08:57;7.90;;;7.20;;
1128;SDS011;553;51.038;7.216;2023-06-19T02:11:24;9.13;;;8.23;;
1128;SDS011;553;51.038;7.216;2023-06-19T02:13:53;8.30;;;7.50;;
1128;SDS011;553;51.038;7.216;2023-06-19T02:16:19;8.07;;;7.37;;
1128;SDS011;553;51.038;7.216;2023-06-19T02:18:47;7.70;;;7.00;;
1128;SDS011;553;51.038;7.216;2023-06-19T02:21:14;7.93;;;7.13;;
1128;SDS011;553;51.038;7.216;2023-06-19T02:23:41;7.80;;;7.10;;
1128;SDS011;553;51.038;7.216;2023-06-19T02:26:07;8.13;;;7.37;;
1128;SDS011;553;51.038;7.216;2023-06-19T02:28:34;8.20;;;7.40;;
1128;SDS011;553;51.038;7.216;2023-06-19T02:31:01;7.43;;;6.83;;
1128;SDS011;553;51.038;7.216;2023-06-19T02:33:27;8.30;;;7.60;;
1128;SDS011;553;51.038;7.216;2023-06-19T02:35:55;8.33;;;7.47;;
1128;SDS011;553;51.038;7.216;2023-06-19T02:38:25;8.83;;;7.30;;
1128;SDS011;553;51.038;7.216;2023-06-19T02:40:53;8.23;;;7.20;;
1128;SDS011;553;51.038;7.216;2023-06-19T02:43:20;8.17;;;7.47;;
1128;SDS011;553;51.038;7.216;2023-06-19T02:45:46;8.70;;;7.90;;
1128;SDS011;553;51.038;7.216;2023-06-19T02:48:13;8.10;;;7.50;;
1128;SDS011;553;51.038;7.216;2023-06-19T02:50:40;7.77;;;7.03;;
1128;SDS011;553;51.038;7.216;2023-06-19T02:53:07;8.17;;;7.40;;
1128;SDS011;553;51.038;7.216;2023-06-19T02:55:34;8.33;;;7.53;;
1128;SDS011;553;51.038;7.216;2023-06-19T02:58:02;8.13;;;7.37;;
1128;SDS011;553;51.038;7.216;2023-06-19T03:00:29;9.60;;;7.67;;
1128;SDS011;553;51.038;7.216;2023-06-19T03:02:56;8.67;;;7.73;;
1128;SDS011;553;51.038;7.216;2023-06-19T03:05:24;9.80;;;7.90;;
1128;SDS011;553;51.038;7.216;2023-06-19T03:07:54;8.97;;;6.80;;
1128;SDS011;553;51.038;7.216;2023-06-19T03:10:21;8.07;;;7.37;;
1128;SDS011;553;51.038;7.216;2023-06-19T03:12:49;7.70;;;7.00;;
1128;SDS011;553;51.038;7.216;2023-06-19T03:15:15;8.40;;;7.70;;
1128;SDS011;553;51.038;7.216;2023-06-19T03:17:46;8.27;;;7.47;;
1128;SDS011;553;51.038;7.216;2023-06-19T03:20:13;11.50;;;8.20;;
1128;SDS011;553;51.038;7.216;2023-06-19T03:22:47;8.47;;;7.47;;
1128;SDS011;553;51.038;7.216;2023-06-19T03:25:15;8.90;;;8.00;;
1128;SDS011;553;51.038;7.216;2023-06-19T03:27:42;8.93;;;8.13;;
1128;SDS011;553;51.038;7.216;2023-06-19T03:30:09;8.20;;;7.50;;
1128;SDS011;553;51.038;7.216;2023-06-19T03:32:40;9.30;;;8.43;;
1128;SDS011;553;51.038;7.216;2023-06-19T03:35:12;10.57;;;7.57;;
1128;SDS011;553;51.038;7.216;2023-06-19T03:37:42;8.30;;;7.13;;
1128;SDS011;553;51.038;7.216;2023-06-19T03:40:10;8.00;;;7.30;;
1128;SDS011;553;51.038;7.216;2023-06-19T03:42:42;8.90;;;7.20;;
1128;SDS011;553;51.038;7.216;2023-06-19T03:45:09;8.70;;;7.90;;
1128;SDS011;553;51.038;7.216;2023-06-19T03:47:36;8.50;;;7.60;;
1128;SDS011;553;51.038;7.216;2023-06-19T03:50:02;9.17;;;7.77;;
1128;SDS011;553;51.038;7.216;2023-06-19T03:52:44;9.43;;;8.53;;
1128;SDS011;553;51.038;7.216;2023-06-19T03:55:11;9.63;;;8.77;;
1128;SDS011;553;51.038;7.216;2023-06-19T03:57:38;8.87;;;8.10;;
1128;SDS011;553;51.038;7.216;2023-06-19T04:00:05;8.90;;;8.00;;
1128;SDS011;553;51.038;7.216;2023-06-19T04:02:37;8.30;;;7.50;;
1128;SDS011;553;51.038;7.216;2023-06-19T04:05:05;8.47;;;7.60;;
1128;SDS011;553;51.038;7.216;2023-06-19T04:07:32;9.67;;;8.77;;
1128;SDS011;553;51.038;7.216;2023-06-19T04:09:59;8.43;;;7.50;;
1128;SDS011;553;51.038;7.216;2023-06-19T04:12:26;9.23;;;8.33;;
1128;SDS011;553;51.038;7.216;2023-06-19T04:14:52;8.83;;;8.03;;
1128;SDS011;553;51.038;7.216;2023-06-19T04:17:19;13.10;;;8.53;;
1128;SDS011;553;51.038;7.216;2023-06-19T04:19:47;8.30;;;7.50;;
1128;SDS011;553;51.038;7.216;2023-06-19T04:22:14;8.23;;;7.53;;
1128;SDS011;553;51.038;7.216;2023-06-19T04:24:41;8.93;;;7.27;;
1128;SDS011;553;51.038;7.216;2023-06-19T04:27:07;9.17;;;7.30;;
1128;SDS011;553;51.038;7.216;2023-06-19T04:29:34;9.80;;;8.40;;
1128;SDS011;553;51.038;7.216;2023-06-19T04:32:02;9.00;;;8.10;;
1128;SDS011;553;51.038;7.216;2023-06-19T04:34:29;7.90;;;7.10;;
1128;SDS011;553;51.038;7.216;2023-06-19T04:36:57;7.03;;;6.33;;
1128;SDS011;553;51.038;7.216;2023-06-19T04:39:24;9.17;;;7.40;;
1128;SDS011;553;51.038;7.216;2023-06-19T04:41:51;8.03;;;7.33;;
1128;SDS011;553;51.038;7.216;2023-06-19T04:44:18;6.50;;;5.90;;
1128;SDS011;553;51.038;7.216;2023-06-19T04:46:44;6.70;;;6.10;;
1128;SDS011;553;51.038;7.216;2023-06-19T04:49:11;7.00;;;6.30;;
1128;SDS011;553;51.038;7.216;2023-06-19T04:51:40;7.00;;;6.10;;
1128;SDS011;553;51.038;7.216;2023-06-19T04:54:08;5.90;;;5.30;;
1128;SDS011;553;51.038;7.216;2023-06-19T04:56:34;5.80;;;5.10;;
1128;SDS011;553;51.038;7.216;2023-06-19T04:59:01;5.13;;;4.63;;
1128;SDS011;553;51.038;7.216;2023-06-19T05:01:28;4.60;;;4.20;;
1128;SDS011;553;51.038;7.216;2023-06-19T05:03:56;6.43;;;4.83;;
1128;SDS011;553;51.038;7.216;2023-06-19T05:06:23;6.40;;;5.40;;
1128;SDS011;553;51.038;7.216;2023-06-19T05:08:50;5.23;;;4.70;;
1128;SDS011;553;51.038;7.216;2023-06-19T05:11:18;6.17;;;5.43;;
1128;SDS011;553;51.038;7.216;2023-06-19T05:13:45;4.93;;;4.50;;
1128;SDS011;553;51.038;7.216;2023-06-19T05:16:11;6.63;;;4.50;;
1128;SDS011;553;51.038;7.216;2023-06-19T05:18:42;5.50;;;4.33;;
1128;SDS011;553;51.038;7.216;2023-06-19T05:21:10;5.10;;;4.30;;
1128;SDS011;553;51.038;7.216;2023-06-19T05:23:37;5.47;;;4.40;;
1128;SDS011;553;51.038;7.216;2023-06-19T05:26:04;4.63;;;4.17;;
1128;SDS011;553;51.038;7.216;2023-06-19T05:28:31;4.53;;;3.93;;
1128;SDS011;553;51.038;7.216;2023-06-19T05:30:58;5.30;;;3.80;;
1128;SDS011;553;51.038;7.216;2023-06-19T05:33:24;4.40;;;4.00;;
1128;SDS011;553;51.038;7.216;2023-06-19T05:35:51;5.83;;;3.67;;
1128;SDS011;553;51.038;7.216;2023-06-19T05:38:20;4.73;;;3.57;;
1128;SDS011;553;51.038;7.216;2023-06-19T05:40:47;5.00;;;3.70;;
1128;SDS011;553;51.038;7.216;2023-06-19T05:43:13;5.13;;;3.70;;
1128;SDS011;553;51.038;7.216;2023-06-19T05:45:40;5.13;;;4.17;;
1128;SDS011;553;51.038;7.216;2023-06-19T05:48:07;3.83;;;3.10;;
1128;SDS011;553;51.038;7.216;2023-06-19T05:50:33;4.53;;;3.37;;
1128;SDS011;553;51.038;7.216;2023-06-19T05:53:00;4.53;;;4.13;;
1128;SDS011;553;51.038;7.216;2023-06-19T05:55:27;4.67;;;3.63;;
1128;SDS011;553;51.038;7.216;2023-06-19T05:57:55;4.27;;;3.63;;
1128;SDS011;553;51.038;7.216;2023-06-19T06:00:22;3.97;;;3.27;;
1128;SDS011;553;51.038;7.216;2023-06-19T06:02:49;3.80;;;3.03;;
1128;SDS011;553;51.038;7.216;2023-06-19T06:05:18;4.30;;;3.27;;
1128;SDS011;553;51.038;7.216;2023-06-19T06:07:46;6.30;;;3.70;;
1128;SDS011;553;51.038;7.216;2023-06-19T06:10:13;3.67;;;3.37;;
1128;SDS011;553;51.038;7.216;2023-06-19T06:12:40;4.90;;;3.50;;
1128;SDS011;553;51.038;7.216;2023-06-19T06:15:07;4.97;;;3.03;;
1128;SDS011;553;51.038;7.216;2023-06-19T06:17:34;4.00;;;3.60;;
1128;SDS011;553;51.038;7.216;2023-06-19T06:20:01;6.10;;;3.97;;
1128;SDS011;553;51.038;7.216;2023-06-19T06:22:27;4.83;;;3.20;;
1128;SDS011;553;51.038;7.216;2023-06-19T06:24:54;6.47;;;3.53;;
1128;SDS011;553;51.038;7.216;2023-06-19T06:27:21;4.40;;;3.07;;
1128;SDS011;553;51.038;7.216;2023-06-19T06:29:48;5.50;;;3.33;;
1128;SDS011;553;51.038;7.216;2023-06-19T06:32:14;6.50;;;3.10;;
1128;SDS011;553;51.038;7.216;2023-06-19T06:34:41;3.43;;;2.90;;
1128;SDS011;553;51.038;7.216;2023-06-19T06:37:07;4.30;;;2.93;;
1128;SDS011;553;51.038;7.216;2023-06-19T06:39:34;3.07;;;2.50;;
1128;SDS011;553;51.038;7.216;2023-06-19T06:42:01;3.80;;;3.10;;
1128;SDS011;553;51.038;7.216;2023-06-19T06:44:28;2.97;;;2.20;;
1128;SDS011;553;51.038;7.216;2023-06-19T06:46:55;3.10;;;2.63;;
1128;SDS011;553;51.038;7.216;2023-06-19T06:49:21;3.70;;;2.50;;
1128;SDS011;553;51.038;7.216;2023-06-19T06:51:48;3.10;;;2.23;;
1128;SDS011;553;51.038;7.216;2023-06-19T06:54:15;3.50;;;2.37;;
1128;SDS011;553;51.038;7.216;2023-06-19T06:56:42;2.63;;;1.87;;
1128;SDS011;553;51.038;7.216;2023-06-19T06:59:09;2.40;;;2.10;;
1128;SDS011;553;51.038;7.216;2023-06-19T07:01:36;2.60;;;2.30;;
1128;SDS011;553;51.038;7.216;2023-06-19T07:04:03;2.53;;;2.00;;
1128;SDS011;553;51.038;7.216;2023-06-19T07:06:29;1.70;;;1.57;;
1128;SDS011;553;51.038;7.216;2023-06-19T07:08:56;4.97;;;2.53;;
1128;SDS011;553;51.038;7.216;2023-06-19T07:11:23;2.60;;;2.10;;
1128;SDS011;553;51.038;7.216;2023-06-19T07:13:50;3.23;;;2.00;;
1128;SDS011;553;51.038;7.216;2023-06-19T07:16:16;2.07;;;1.87;;
1128;SDS011;553;51.038;7.216;2023-06-19T07:18:43;3.27;;;2.73;;
1128;SDS011;553;51.038;7.216;2023-06-19T07:21:11;2.20;;;1.90;;
1128;SDS011;553;51.038;7.216;2023-06-19T07:23:39;1.63;;;1.50;;
1128;SDS011;553;51.038;7.216;2023-06-19T07:26:07;1.70;;;1.60;;
1128;SDS011;553;51.038;7.216;2023-06-19T07:28:34;1.80;;;1.50;;
1128;SDS011;553;51.038;7.216;2023-06-19T07:31:02;2.63;;;2.23;;
1128;SDS011;553;51.038;7.216;2023-06-19T07:33:29;2.00;;;1.70;;
1128;SDS011;553;51.038;7.216;2023-06-19T07:35:56;1.80;;;1.60;;
1128;SDS011;553;51.038;7.216;2023-06-19T07:38:23;2.83;;;2.10;;
1128;SDS011;553;51.038;7.216;2023-06-19T07:40:50;3.33;;;2.17;;
1128;SDS011;553;51.038;7.216;2023-06-19T07:43:17;3.30;;;2.07;;
1128;SDS011;553;51.038;7.216;2023-06-19T07:45:43;2.10;;;1.80;;
1128;SDS011;553;51.038;7.216;2023-06-19T07:48:10;2.13;;;1.80;;
1128;SDS011;553;51.038;7.216;2023-06-19T07:50:37;3.73;;;2.27;;
1128;SDS011;553;51.038;7.216;2023-06-19T07:53:03;2.20;;;1.13;;
1128;SDS011;553;51.038;7.216;2023-06-19T07:55:30;2.37;;;1.93;;
1128;SDS011;553;51.038;7.216;2023-06-19T07:57:57;2.60;;;1.83;;
1128;SDS011;553;51.038;7.216;2023-06-19T08:00:24;2.10;;;1.90;;
1128;SDS011;553;51.038;7.216;2023-06-19T08:02:51;2.33;;;1.57;;
1128;SDS011;553;51.038;7.216;2023-06-19T08:05:18;2.17;;;1.83;;
1128;SDS011;553;51.038;7.216;2023-06-19T08:07:45;2.93;;;1.80;;
1128;SDS011;553;51.038;7.216;2023-06-19T08:10:12;2.87;;;1.90;;
1128;SDS011;553;51.038;7.216;2023-06-19T08:12:40;2.90;;;1.90;;
1128;SDS011;553;51.038;7.216;2023-06-19T08:15:08;2.17;;;1.80;;
1128;SDS011;553;51.038;7.216;2023-06-19T08:17:36;2.73;;;1.90;;
1128;SDS011;553;51.038;7.216;2023-06-19T08:20:03;2.83;;;1.70;;
1128;SDS011;553;51.038;7.216;2023-06-19T08:22:31;2.13;;;1.43;;
1128;SDS011;553;51.038;7.216;2023-06-19T08:24:58;1.87;;;1.60;;
1128;SDS011;553;51.038;7.216;2023-06-19T08:27:24;2.80;;;1.60;;
1128;SDS011;553;51.038;7.216;2023-06-19T08:29:52;2.00;;;1.80;;
1128;SDS011;553;51.038;7.216;2023-06-19T08:32:18;3.17;;;1.90;;
1128;SDS011;553;51.038;7.216;2023-06-19T08:34:45;1.87;;;1.50;;
1128;SDS011;553;51.038;7.216;2023-06-19T08:37:12;1.50;;;1.40;;
1128;SDS011;553;51.038;7.216;2023-06-19T08:39:39;2.40;;;1.60;;
1128;SDS011;553;51.038;7.216;2023-06-19T08:42:06;2.00;;;1.30;;
1128;SDS011;553;51.038;7.216;2023-06-19T08:44:36;2.60;;;1.40;;
1128;SDS011;553;51.038;7.216;2023-06-19T08:47:05;1.97;;;1.33;;
1128;SDS011;553;51.038;7.216;2023-06-19T08:49:33;2.70;;;1.97;;
1128;SDS011;553;51.038;7.216;2023-06-19T08:52:01;1.80;;;1.63;;
1128;SDS011;553;51.038;7.216;2023-06-19T08:54:28;1.87;;;1.67;;
1128;SDS011;553;51.038;7.216;2023-06-19T08:56:55;3.47;;;1.60;;
1128;SDS011;553;51.038;7.216;2023-06-19T08:59:25;2.80;;;1.83;;
1128;SDS011;553;51.038;7.216;2023-06-19T09:01:54;5.17;;;2.10;;
1128;SDS011;553;51.038;7.216;2023-06-19T09:04:26;3.53;;;2.07;;
1128;SDS011;553;51.038;7.216;2023-06-19T09:09:43;1.97;;;1.77;;
1128;SDS011;553;51.038;7.216;2023-06-19T09:12:12;2.97;;;2.10;;
1128;SDS011;553;51.038;7.216;2023-06-19T09:14:43;3.60;;;2.10;;
1128;SDS011;553;51.038;7.216;2023-06-19T09:17:12;2.30;;;1.80;;
1128;SDS011;553;51.038;7.216;2023-06-19T09:19:47;2.90;;;2.17;;
1128;SDS011;553;51.038;7.216;2023-06-19T09:22:15;3.23;;;1.90;;
1128;SDS011;553;51.038;7.216;2023-06-19T09:24:46;3.60;;;1.90;;
1128;SDS011;553;51.038;7.216;2023-06-19T09:27:15;1.50;;;1.40;;
1128;SDS011;553;51.038;7.216;2023-06-19T09:29:48;2.10;;;1.70;;
1128;SDS011;553;51.038;7.216;2023-06-19T09:32:17;2.80;;;2.13;;
1128;SDS011;553;51.038;7.216;2023-06-19T09:34:46;2.63;;;2.03;;
1128;SDS011;553;51.038;7.216;2023-06-19T09:37:14;3.50;;;2.40;;
1128;SDS011;553;51.038;7.216;2023-06-19T09:39:41;2.40;;;2.13;;
1128;SDS011;553;51.038;7.216;2023-06-19T09:42:10;2.20;;;1.90;;
1128;SDS011;553;51.038;7.216;2023-06-19T09:44:40;2.70;;;2.00;;
1128;SDS011;553;51.038;7.216;2023-06-19T09:47:17;2.60;;;2.40;;
1128;SDS011;553;51.038;7.216;2023-06-19T09:49:49;3.70;;;2.23;;
1128;SDS011;553;51.038;7.216;2023-06-19T09:52:20;3.40;;;2.03;;
1128;SDS011;553;51.038;7.216;2023-06-19T09:54:51;3.57;;;2.00;;
1128;SDS011;553;51.038;7.216;2023-06-19T09:57:19;2.93;;;2.17;;
1128;SDS011;553;51.038;7.216;2023-06-19T09:59:50;3.63;;;2.00;;
1128;SDS011;553;51.038;7.216;2023-06-19T10:02:20;3.33;;;2.70;;
1128;SDS011;553;51.038;7.216;2023-06-19T10:04:49;3.67;;;2.83;;
1128;SDS011;553;51.038;7.216;2023-06-19T10:07:22;3.20;;;2.90;;
1128;SDS011;553;51.038;7.216;2023-06-19T10:10:03;3.87;;;2.70;;
1128;SDS011;553;51.038;7.216;2023-06-19T10:12:36;7.30;;;3.10;;
1128;SDS011;553;51.038;7.216;2023-06-19T10:15:16;3.87;;;3.00;;
1128;SDS011;553;51.038;7.216;2023-06-19T10:17:58;3.77;;;2.97;;
1128;SDS011;553;51.038;7.216;2023-06-19T10:20:27;4.67;;;3.50;;
1128;SDS011;553;51.038;7.216;2023-06-19T10:25:37;5.43;;;3.73;;
1128;SDS011;553;51.038;7.216;2023-06-19T10:28:25;6.20;;;4.00;;
1128;SDS011;553;51.038;7.216;2023-06-19T10:31:04;4.83;;;3.53;;
1128;SDS011;553;51.038;7.216;2023-06-19T10:33:33;4.97;;;4.47;;
1128;SDS011;553;51.038;7.216;2023-06-19T10:36:01;5.37;;;4.23;;
1128;SDS011;553;51.038;7.216;2023-06-19T10:38:40;4.00;;;3.70;;
1128;SDS011;553;51.038;7.216;2023-06-19T10:41:14;4.70;;;4.20;;
1128;SDS011;553;51.038;7.216;2023-06-19T10:44:00;4.43;;;4.03;;
1128;SDS011;553;51.038;7.216;2023-06-19T10:46:33;4.13;;;3.70;;
1128;SDS011;553;51.038;7.216;2023-06-19T10:49:05;7.00;;;5.27;;
1128;SDS011;553;51.038;7.216;2023-06-19T10:51:37;5.00;;;4.50;;
1128;SDS011;553;51.038;7.216;2023-06-19T10:54:04;5.17;;;4.67;;
1128;SDS011;553;51.038;7.216;2023-06-19T10:56:32;4.53;;;4.13;;
1128;SDS011;553;51.038;7.216;2023-06-19T10:59:04;7.50;;;4.90;;
1128;SDS011;553;51.038;7.216;2023-06-19T11:04:04;4.73;;;4.23;;
1128;SDS011;553;51.038;7.216;2023-06-19T11:06:32;5.80;;;4.60;;
1128;SDS011;553;51.038;7.216;2023-06-19T11:09:03;6.17;;;4.50;;
1128;SDS011;553;51.038;7.216;2023-06-19T11:11:35;5.63;;;4.40;;
1128;SDS011;553;51.038;7.216;2023-06-19T11:14:10;5.70;;;4.30;;
1128;SDS011;553;51.038;7.216;2023-06-19T11:16:41;4.63;;;4.23;;
1128;SDS011;553;51.038;7.216;2023-06-19T11:19:13;4.23;;;3.83;;
1128;SDS011;553;51.038;7.216;2023-06-19T11:21:51;5.27;;;4.53;;
1128;SDS011;553;51.038;7.216;2023-06-19T11:24:19;5.00;;;4.33;;
1128;SDS011;553;51.038;7.216;2023-06-19T11:26:47;5.40;;;4.90;;
1128;SDS011;553;51.038;7.216;2023-06-19T11:29:20;5.93;;;4.60;;
1128;SDS011;553;51.038;7.216;2023-06-19T11:32:14;5.87;;;4.83;;
1128;SDS011;553;51.038;7.216;2023-06-19T11:34:43;6.80;;;4.57;;
1128;SDS011;553;51.038;7.216;2023-06-19T11:37:17;7.10;;;4.40;;
1128;SDS011;553;51.038;7.216;2023-06-19T11:39:46;7.90;;;4.93;;
1128;SDS011;553;51.038;7.216;2023-06-19T11:42:14;4.40;;;4.00;;
1128;SDS011;553;51.038;7.216;2023-06-19T11:45:00;5.30;;;4.80;;
1128;SDS011;553;51.038;7.216;2023-06-19T11:47:32;7.27;;;4.93;;
1128;SDS011;553;51.038;7.216;2023-06-19T11:49:59;6.30;;;5.10;;
1128;SDS011;553;51.038;7.216;2023-06-19T11:52:28;6.07;;;4.93;;
1128;SDS011;553;51.038;7.216;2023-06-19T11:54:56;5.17;;;4.70;;
1128;SDS011;553;51.038;7.216;2023-06-19T11:57:22;5.30;;;4.77;;
1128;SDS011;553;51.038;7.216;2023-06-19T11:59:49;7.83;;;4.77;;
1128;SDS011;553;51.038;7.216;2023-06-19T12:02:16;7.77;;;4.60;;
1128;SDS011;553;51.038;7.216;2023-06-19T12:04:42;7.93;;;4.70;;
1128;SDS011;553;51.038;7.216;2023-06-19T12:07:09;5.67;;;4.33;;
1128;SDS011;553;51.038;7.216;2023-06-19T12:09:37;5.80;;;4.63;;
1128;SDS011;553;51.038;7.216;2023-06-19T12:12:05;6.07;;;4.73;;
1128;SDS011;553;51.038;7.216;2023-06-19T12:14:33;5.70;;;4.37;;
1128;SDS011;553;51.038;7.216;2023-06-19T12:16:59;4.87;;;4.37;;
1128;SDS011;553;51.038;7.216;2023-06-19T12:19:26;10.07;;;4.77;;
1128;SDS011;553;51.038;7.216;2023-06-19T12:21:54;6.43;;;4.70;;
1128;SDS011;553;51.038;7.216;2023-06-19T12:24:20;4.90;;;4.37;;
1128;SDS011;553;51.038;7.216;2023-06-19T12:26:47;7.27;;;4.30;;
1128;SDS011;553;51.038;7.216;2023-06-19T12:29:14;4.60;;;4.20;;
1128;SDS011;553;51.038;7.216;2023-06-19T12:31:40;4.90;;;4.37;;
1128;SDS011;553;51.038;7.216;2023-06-19T12:34:09;4.40;;;3.90;;
1128;SDS011;553;51.038;7.216;2023-06-19T12:36:55;7.83;;;4.27;;
1128;SDS011;553;51.038;7.216;2023-06-19T12:39:23;5.87;;;4.37;;
1128;SDS011;553;51.038;7.216;2023-06-19T12:41:50;5.20;;;4.50;;
1128;SDS011;553;51.038;7.216;2023-06-19T12:44:18;5.30;;;4.80;;
1128;SDS011;553;51.038;7.216;2023-06-19T12:46:44;7.87;;;5.23;;
1128;SDS011;553;51.038;7.216;2023-06-19T12:49:11;6.33;;;4.53;;
1128;SDS011;553;51.038;7.216;2023-06-19T12:51:38;6.00;;;4.40;;
1128;SDS011;553;51.038;7.216;2023-06-19T12:54:05;5.37;;;4.80;;
1128;SDS011;553;51.038;7.216;2023-06-19T12:56:31;5.40;;;4.20;;
1128;SDS011;553;51.038;7.216;2023-06-19T12:58:58;6.47;;;4.57;;
1128;SDS011;553;51.038;7.216;2023-06-19T13:01:25;6.30;;;4.70;;
1128;SDS011;553;51.038;7.216;2023-06-19T13:03:52;6.40;;;3.73;;
1128;SDS011;553;51.038;7.216;2023-06-19T13:06:18;5.13;;;3.87;;
1128;SDS011;553;51.038;7.216;2023-06-19T13:08:45;5.93;;;4.40;;
1128;SDS011;553;51.038;7.216;2023-06-19T13:11:12;4.80;;;4.07;;
1128;SDS011;553;51.038;7.216;2023-06-19T13:13:39;5.03;;;4.53;;
1128;SDS011;553;51.038;7.216;2023-06-19T13:16:06;6.37;;;4.40;;
1128;SDS011;553;51.038;7.216;2023-06-19T13:18:33;4.40;;;4.00;;
1128;SDS011;553;51.038;7.216;2023-06-19T13:20:59;4.27;;;3.87;;
1128;SDS011;553;51.038;7.216;2023-06-19T13:23:26;5.50;;;4.40;;
1128;SDS011;553;51.038;7.216;2023-06-19T13:25:53;5.00;;;4.50;;
1128;SDS011;553;51.038;7.216;2023-06-19T13:28:19;7.07;;;4.83;;
1128;SDS011;553;51.038;7.216;2023-06-19T13:30:46;6.30;;;4.67;;
1128;SDS011;553;51.038;7.216;2023-06-19T13:33:13;8.80;;;4.80;;
1128;SDS011;553;51.038;7.216;2023-06-19T13:35:39;5.13;;;4.43;;
1128;SDS011;553;51.038;7.216;2023-06-19T13:38:06;8.13;;;5.40;;
1128;SDS011;553;51.038;7.216;2023-06-19T13:40:33;4.90;;;4.40;;
1128;SDS011;553;51.038;7.216;2023-06-19T13:43:00;4.40;;;3.90;;
1128;SDS011;553;51.038;7.216;2023-06-19T13:45:28;7.47;;;5.27;;
1128;SDS011;553;51.038;7.216;2023-06-19T13:47:56;5.93;;;4.50;;
1128;SDS011;553;51.038;7.216;2023-06-19T13:50:24;7.07;;;4.90;;
1128;SDS011;553;51.038;7.216;2023-06-19T13:52:51;6.37;;;4.60;;
1128;SDS011;553;51.038;7.216;2023-06-19T13:55:17;6.63;;;4.20;;
1128;SDS011;553;51.038;7.216;2023-06-19T13:57:45;8.87;;;5.27;;
1128;SDS011;553;51.038;7.216;2023-06-19T14:00:12;5.03;;;4.53;;
1128;SDS011;553;51.038;7.216;2023-06-19T14:02:39;6.53;;;4.00;;
1128;SDS011;553;51.038;7.216;2023-06-19T14:05:07;4.47;;;4.03;;
1128;SDS011;553;51.038;7.216;2023-06-19T14:07:35;6.70;;;3.97;;
1128;SDS011;553;51.038;7.216;2023-06-19T14:10:02;7.17;;;4.37;;
1128;SDS011;553;51.038;7.216;2023-06-19T14:12:31;7.83;;;4.27;;
1128;SDS011;553;51.038;7.216;2023-06-19T14:14:57;5.70;;;4.53;;
1128;SDS011;553;51.038;7.216;2023-06-19T14:17:24;6.63;;;3.80;;
1128;SDS011;553;51.038;7.216;2023-06-19T14:19:52;5.10;;;4.03;;
1128;SDS011;553;51.038;7.216;2023-06-19T14:22:19;4.40;;;4.00;;
1128;SDS011;553;51.038;7.216;2023-06-19T14:24:45;5.17;;;4.00;;
1128;SDS011;553;51.038;7.216;2023-06-19T14:27:12;6.33;;;4.30;;
1128;SDS011;553;51.038;7.216;2023-06-19T14:29:39;5.90;;;4.00;;
1128;SDS011;553;51.038;7.216;2023-06-19T14:32:06;4.40;;;3.87;;
1128;SDS011;553;51.038;7.216;2023-06-19T14:34:33;5.60;;;4.10;;
1128;SDS011;553;51.038;7.216;2023-06-19T14:36:59;5.47;;;4.50;;
1128;SDS011;553;51.038;7.216;2023-06-19T14:39:26;5.50;;;4.40;;
1128;SDS011;553;51.038;7.216;2023-06-19T14:41:53;3.93;;;3.63;;
1128;SDS011;553;51.038;7.216;2023-06-19T14:44:19;6.77;;;4.20;;
1128;SDS011;553;51.038;7.216;2023-06-19T14:46:47;5.17;;;4.50;;
1128;SDS011;553;51.038;7.216;2023-06-19T14:49:14;11.40;;;4.60;;
1128;SDS011;553;51.038;7.216;2023-06-19T14:51:44;6.17;;;4.20;;
1128;SDS011;553;51.038;7.216;2023-06-19T14:54:10;7.63;;;4.47;;
1128;SDS011;553;51.038;7.216;2023-06-19T14:56:37;5.27;;;4.23;;
1128;SDS011;553;51.038;7.216;2023-06-19T14:59:04;5.60;;;4.23;;
1128;SDS011;553;51.038;7.216;2023-06-19T15:01:30;4.40;;;4.00;;
1128;SDS011;553;51.038;7.216;2023-06-19T15:03:57;4.90;;;4.40;;
1128;SDS011;553;51.038;7.216;2023-06-19T15:06:24;4.80;;;4.30;;
1128;SDS011;553;51.038;7.216;2023-06-19T15:08:51;8.93;;;4.57;;
1128;SDS011;553;51.038;7.216;2023-06-19T15:11:18;6.27;;;4.10;;
1128;SDS011;553;51.038;7.216;2023-06-19T15:13:45;8.00;;;4.07;;
1128;SDS011;553;51.038;7.216;2023-06-19T15:16:12;5.13;;;4.63;;
1128;SDS011;553;51.038;7.216;2023-06-19T15:18:39;5.20;;;4.70;;
1128;SDS011;553;51.038;7.216;2023-06-19T15:21:06;5.83;;;4.60;;
1128;SDS011;553;51.038;7.216;2023-06-19T15:23:33;5.83;;;3.87;;
1128;SDS011;553;51.038;7.216;2023-06-19T15:26:00;5.83;;;3.83;;
1128;SDS011;553;51.038;7.216;2023-06-19T15:28:27;7.57;;;4.43;;
1128;SDS011;553;51.038;7.216;2023-06-19T15:30:54;5.73;;;4.50;;
1128;SDS011;553;51.038;7.216;2023-06-19T15:33:21;5.80;;;4.63;;
1128;SDS011;553;51.038;7.216;2023-06-19T15:35:47;5.37;;;4.40;;
1128;SDS011;553;51.038;7.216;2023-06-19T15:38:15;4.53;;;4.13;;
1128;SDS011;553;51.038;7.216;2023-06-19T15:40:42;7.10;;;4.10;;
1128;SDS011;553;51.038;7.216;2023-06-19T15:43:09;5.73;;;4.47;;
1128;SDS011;553;51.038;7.216;2023-06-19T15:45:36;11.87;;;5.87;;
1128;SDS011;553;51.038;7.216;2023-06-19T15:48:03;5.43;;;4.37;;
1128;SDS011;553;51.038;7.216;2023-06-19T15:50:31;6.20;;;3.80;;